Time;durP1;ratioP1;P1;durP2;ratioP2;P2;SDS_P1;SDS_P2;PMS_P1;PMS_P2;Temp;Humidity;BMP_temperature;BMP_pressure;BME280_temperature;BME280_humidity;BME280_pressure;Samples;Min_cycle;Max_cycle;Signal;HPM_P1;HPM_P2
2024/03/27 00:01:42;;;;;;;3.87;1.60;;;13.60;1.00;;;;;;5012660;28;20626;-84
2024/03/27 00:04:09;;;;;;;3.13;1.43;;;13.60;1.00;;;;;;5012756;28;20390;-84
2024/03/27 00:06:35;;;;;;;2.47;1.30;;;13.50;1.00;;;;;;5012066;28;20229;-85
2024/03/27 00:09:01;;;;;;;2.60;1.40;;;13.40;1.00;;;;;;5012616;28;20259;-84
2024/03/27 00:11:27;;;;;;;3.30;1.37;;;13.30;1.00;;;;;;5014887;28;20233;-84
2024/03/27 00:13:53;;;;;;;2.73;1.23;;;13.30;1.00;;;;;;5013204;28;20663;-85
2024/03/27 00:16:19;;;;;;;3.30;1.23;;;13.30;1.00;;;;;;5014591;28;20176;-86
2024/03/27 00:18:45;;;;;;;3.03;1.10;;;13.30;1.00;;;;;;5013833;28;20182;-83
2024/03/27 00:21:11;;;;;;;2.97;1.30;;;13.20;1.00;;;;;;5012350;28;20547;-85
2024/03/27 00:23:36;;;;;;;3.53;1.27;;;13.20;1.00;;;;;;5013605;28;20178;-85
2024/03/27 00:26:03;;;;;;;2.60;1.20;;;13.10;1.00;;;;;;5013485;28;20277;-83
2024/03/27 00:28:28;;;;;;;3.23;1.20;;;13.10;1.00;;;;;;5012549;28;20179;-84
2024/03/27 00:30:54;;;;;;;2.77;1.20;;;13.00;1.00;;;;;;5013507;28;20185;-84
2024/03/27 00:33:20;;;;;;;3.17;1.40;;;13.10;1.00;;;;;;5046673;28;20695;-84
2024/03/27 00:35:55;;;;;;;3.50;1.40;;;13.10;1.00;;;;;;5015214;28;20181;-84
2024/03/27 00:38:21;;;;;;;1.73;1.20;;;13.10;1.00;;;;;;5016834;28;20198;-85
2024/03/27 00:40:47;;;;;;;3.23;1.40;;;13.10;1.00;;;;;;5016767;28;20177;-82
2024/03/27 00:43:14;;;;;;;3.90;1.20;;;13.10;1.00;;;;;;5016901;28;20179;-85
2024/03/27 00:45:39;;;;;;;1.87;1.10;;;13.00;1.00;;;;;;5016230;28;20220;-83
2024/03/27 00:48:05;;;;;;;2.23;1.20;;;13.00;1.00;;;;;;5016704;28;20187;-84
2024/03/27 00:50:31;;;;;;;2.70;1.40;;;12.90;1.00;;;;;;5016845;28;20184;-82
2024/03/27 00:52:57;;;;;;;2.07;1.10;;;12.80;1.00;;;;;;5015496;28;20183;-83
2024/03/27 00:55:23;;;;;;;4.37;1.60;;;12.80;1.00;;;;;;5014072;28;20178;-84
2024/03/27 00:57:49;;;;;;;2.80;1.40;;;12.90;1.00;;;;;;5014161;28;20175;-82
2024/03/27 01:00:18;;;;;;;2.47;1.30;;;12.90;1.00;;;;;;5014660;28;20209;-83
2024/03/27 01:02:45;;;;;;;2.57;1.37;;;12.90;1.00;;;;;;5014302;28;20198;-84
2024/03/27 01:05:12;;;;;;;3.57;1.40;;;12.70;1.00;;;;;;5014906;28;20272;-84
2024/03/27 01:07:38;;;;;;;3.27;1.50;;;12.70;1.00;;;;;;5014239;28;20680;-82
2024/03/27 01:10:05;;;;;;;1.93;1.70;;;12.60;1.00;;;;;;5014690;28;20179;-83
2024/03/27 01:12:30;;;;;;;4.70;1.90;;;12.60;1.00;;;;;;5014140;28;20206;-84
2024/03/27 01:14:56;;;;;;;3.63;2.00;;;12.50;4.60;;;;;;5014937;28;20198;-83
2024/03/27 01:17:22;;;;;;;3.63;1.93;;;12.50;6.00;;;;;;5014038;28;20175;-82
2024/03/27 01:19:48;;;;;;;3.90;2.00;;;12.50;7.50;;;;;;5015406;28;20544;-83
2024/03/27 01:22:13;;;;;;;5.80;2.60;;;12.50;10.10;;;;;;5015479;28;20175;-84
2024/03/27 01:24:39;;;;;;;4.30;2.30;;;12.40;12.10;;;;;;5014693;28;20211;-83
2024/03/27 01:27:05;;;;;;;4.07;2.43;;;12.30;16.10;;;;;;5015350;28;20599;-84
2024/03/27 01:29:31;;;;;;;4.20;2.83;;;12.30;17.50;;;;;;5016070;28;20541;-84
2024/03/27 01:31:57;;;;;;;4.83;3.23;;;12.20;21.60;;;;;;5015986;28;20175;-82
2024/03/27 01:34:23;;;;;;;3.50;3.20;;;12.10;25.40;;;;;;5014711;28;20178;-83
2024/03/27 01:36:48;;;;;;;3.90;3.50;;;12.10;28.40;;;;;;5015245;28;20166;-87
2024/03/27 01:39:15;;;;;;;4.27;3.57;;;12.10;30.20;;;;;;5015701;28;20710;-83
2024/03/27 01:41:41;;;;;;;4.53;4.13;;;12.10;32.50;;;;;;5014911;28;20201;-83
2024/03/27 01:44:17;;;;;;;5.50;4.43;;;12.10;33.50;;;;;;5015275;28;20186;-83
2024/03/27 01:46:48;;;;;;;4.60;4.20;;;12.10;38.00;;;;;;5014119;28;20195;-84
2024/03/27 01:49:18;;;;;;;4.90;4.10;;;12.00;40.10;;;;;;5015369;28;20175;-80
2024/03/27 01:51:44;;;;;;;4.67;3.67;;;11.90;45.70;;;;;;5014947;28;20175;-81
2024/03/27 01:54:12;;;;;;;4.80;3.67;;;11.80;52.30;;;;;;5013580;28;20192;-82
2024/03/27 01:56:38;;;;;;;4.30;3.40;;;11.70;61.40;;;;;;5014842;28;20302;-85
2024/03/27 01:59:05;;;;;;;4.87;3.30;;;11.70;72.50;;;;;;5014983;28;20220;-81
2024/03/27 02:01:32;;;;;;;4.53;3.17;;;11.60;84.80;;;;;;5013377;28;20632;-81
2024/03/27 02:03:59;;;;;;;4.20;3.53;;;11.40;79.30;;;;;;5015356;28;20601;-84
2024/03/27 02:06:25;;;;;;;3.00;2.70;;;11.40;80.10;;;;;;5014997;28;20236;-83
2024/03/27 02:08:52;;;;;;;4.10;2.57;;;11.20;86.40;;;;;;5014541;28;20166;-83
2024/03/27 02:11:17;;;;;;;3.23;2.53;;;11.00;90.70;;;;;;5015090;28;20297;-84
2024/03/27 02:13:46;;;;;;;3.60;2.83;;;10.90;94.90;;;;;;5015060;28;20300;-85
2024/03/27 02:16:15;;;;;;;3.97;3.03;;;10.70;99.90;;;;;;5014992;28;20174;-84
2024/03/27 02:18:41;;;;;;;4.73;3.50;;;10.60;99.90;;;;;;5014883;28;20229;-83
2024/03/27 02:21:10;;;;;;;3.63;2.90;;;10.30;99.90;;;;;;5014693;28;20635;-83
2024/03/27 02:23:54;;;;;;;4.83;3.63;;;10.20;99.90;;;;;;5047104;28;20178;-84
2024/03/27 02:26:31;;;;;;;5.33;3.93;;;10.10;99.90;;;;;;5047522;28;20293;-85
2024/03/27 02:28:56;;;;;;;7.67;5.27;;;10.10;99.90;;;;;;5048385;28;20273;-83
2024/03/27 02:31:22;;;;;;;7.80;5.00;;;10.00;99.90;;;;;;5016073;28;20202;-86
2024/03/27 02:33:47;;;;;;;7.07;4.90;;;10.00;99.90;;;;;;5013881;28;20206;-86
2024/03/27 02:36:13;;;;;;;9.80;6.43;;;9.80;99.90;;;;;;5048077;28;20171;-82
2024/03/27 02:38:39;;;;;;;8.97;6.43;;;9.80;99.90;;;;;;5015111;28;20174;-84
2024/03/27 02:41:04;;;;;;;9.83;7.00;;;9.80;99.90;;;;;;5046893;28;20517;-83
2024/03/27 02:43:30;;;;;;;8.93;6.33;;;9.80;99.90;;;;;;5014889;28;20575;-84
2024/03/27 02:45:56;;;;;;;9.07;6.63;;;9.70;99.90;;;;;;5048284;28;20547;-83
2024/03/27 02:48:21;;;;;;;9.30;6.43;;;9.60;99.90;;;;;;5014648;28;20257;-82
2024/03/27 02:50:47;;;;;;;8.53;6.07;;;9.60;99.90;;;;;;5047345;28;20177;-83
2024/03/27 02:53:13;;;;;;;10.07;7.13;;;9.60;99.90;;;;;;5014494;28;20262;-85
2024/03/27 02:55:39;;;;;;;9.70;6.70;;;9.60;99.90;;;;;;5014722;28;20627;-86
2024/03/27 02:58:05;;;;;;;8.20;6.07;;;9.60;99.90;;;;;;5012785;28;20211;-85
2024/03/27 03:00:30;;;;;;;8.73;6.07;;;9.60;99.90;;;;;;5015105;28;20220;-83
2024/03/27 03:02:57;;;;;;;7.43;5.30;;;9.60;99.90;;;;;;5048016;28;20558;-84
2024/03/27 03:05:23;;;;;;;6.70;4.83;;;9.70;99.90;;;;;;5047298;28;20206;-86
2024/03/27 03:07:49;;;;;;;5.80;4.60;;;9.70;99.90;;;;;;5013969;28;20177;-83
2024/03/27 03:10:15;;;;;;;8.00;5.03;;;9.60;99.50;;;;;;5014457;28;20708;-84
2024/03/27 03:12:40;;;;;;;7.33;5.10;;;9.60;98.50;;;;;;5014980;28;20586;-83
2024/03/27 03:15:07;;;;;;;6.93;5.37;;;9.60;97.40;;;;;;5013313;28;20166;-83
2024/03/27 03:17:35;;;;;;;8.43;5.53;;;9.60;95.80;;;;;;5046478;28;20670;-84
2024/03/27 03:20:04;;;;;;;8.17;5.30;;;9.60;95.10;;;;;;5014193;28;20178;-82
2024/03/27 03:22:29;;;;;;;9.10;5.90;;;9.60;91.80;;;;;;5015339;28;20202;-83
2024/03/27 03:24:55;;;;;;;7.37;6.27;;;9.70;91.30;;;;;;5013191;28;20240;-82
2024/03/27 03:27:21;;;;;;;11.03;6.93;;;9.70;84.40;;;;;;5013603;28;20184;-82
2024/03/27 03:29:46;;;;;;;9.00;5.80;;;9.60;78.80;;;;;;5015541;28;20241;-84
2024/03/27 03:32:12;;;;;;;8.43;5.67;;;9.50;71.60;;;;;;5013449;28;20190;-84
2024/03/27 03:34:38;;;;;;;7.00;4.87;;;9.40;75.90;;;;;;5015309;28;20247;-82
2024/03/27 03:37:05;;;;;;;8.80;5.10;;;9.40;69.90;;;;;;5013756;28;20174;-82
2024/03/27 03:39:30;;;;;;;6.80;4.53;;;9.40;61.80;;;;;;5014288;28;20275;-82
2024/03/27 03:41:56;;;;;;;5.67;4.30;;;9.30;64.10;;;;;;5015361;28;20260;-81
2024/03/27 03:44:22;;;;;;;5.30;4.10;;;9.40;67.80;;;;;;5013986;28;20610;-83
2024/03/27 03:46:48;;;;;;;6.60;4.23;;;9.30;68.00;;;;;;5014045;28;20640;-85
2024/03/27 03:49:13;;;;;;;5.70;3.97;;;9.20;76.50;;;;;;5013111;28;20580;-82
2024/03/27 03:51:39;;;;;;;5.07;3.97;;;9.20;79.70;;;;;;5012900;28;20174;-82
2024/03/27 03:54:07;;;;;;;5.13;3.73;;;9.20;76.20;;;;;;5014667;28;20631;-84
2024/03/27 03:56:32;;;;;;;5.77;3.70;;;9.30;64.90;;;;;;5013818;28;20249;-84
2024/03/27 03:58:58;;;;;;;6.37;3.87;;;9.50;57.00;;;;;;5015297;28;20209;-82
2024/03/27 04:01:24;;;;;;;5.33;3.27;;;9.40;54.80;;;;;;5013986;28;20265;-84
2024/03/27 04:03:50;;;;;;;4.87;3.40;;;9.30;60.00;;;;;;5015501;28;20638;-85
2024/03/27 04:06:15;;;;;;;5.10;3.10;;;9.40;57.80;;;;;;5014519;28;20214;-83
2024/03/27 04:08:41;;;;;;;3.20;2.57;;;9.20;55.20;;;;;;5013044;28;20175;-83
2024/03/27 04:11:07;;;;;;;4.47;3.00;;;9.30;58.30;;;;;;5050666;28;20543;-82
2024/03/27 04:13:33;;;;;;;4.67;2.80;;;9.30;53.20;;;;;;5016295;28;20217;-84
2024/03/27 04:16:01;;;;;;;5.07;3.20;;;9.40;52.20;;;;;;5016741;28;20167;-84
2024/03/27 04:18:27;;;;;;;3.50;3.00;;;9.40;49.60;;;;;;5018113;28;20178;-82
2024/03/27 04:20:53;;;;;;;4.97;2.80;;;9.30;50.90;;;;;;5018023;28;20228;-83
2024/03/27 04:23:19;;;;;;;4.37;2.97;;;9.50;44.70;;;;;;5017072;28;20178;-83
2024/03/27 04:25:48;;;;;;;3.87;2.70;;;9.50;32.30;;;;;;5018645;28;20663;-84
2024/03/27 04:28:15;;;;;;;6.53;3.10;;;9.50;30.00;;;;;;5018145;28;20647;-85
2024/03/27 04:30:41;;;;;;;3.63;2.83;;;9.30;31.10;;;;;;5017775;28;20182;-83
2024/03/27 04:33:08;;;;;;;5.43;2.80;;;9.20;38.10;;;;;;5020054;28;20205;-83
2024/03/27 04:35:33;;;;;;;3.67;2.90;;;9.20;36.90;;;;;;5018774;28;20213;-84
2024/03/27 04:37:59;;;;;;;4.83;3.17;;;9.20;39.80;;;;;;5018190;28;20583;-83
2024/03/27 04:40:25;;;;;;;3.30;2.87;;;9.20;42.30;;;;;;5016668;28;20611;-83
2024/03/27 04:42:51;;;;;;;3.73;2.73;;;9.20;40.90;;;;;;5017873;28;20185;-83
2024/03/27 04:45:17;;;;;;;3.43;2.60;;;9.20;40.50;;;;;;5016381;28;20209;-83
2024/03/27 04:47:42;;;;;;;6.00;2.87;;;9.30;34.20;;;;;;5050349;28;20557;-84
2024/03/27 04:50:08;;;;;;;3.60;2.47;;;9.30;26.30;;;;;;5017066;28;20622;-83
2024/03/27 04:52:35;;;;;;;3.30;1.90;;;9.30;28.10;;;;;;5015576;28;20229;-83
2024/03/27 04:55:04;;;;;;;3.97;2.10;;;9.30;26.80;;;;;;5014546;28;20166;-83
2024/03/27 04:57:30;;;;;;;2.93;1.80;;;9.20;20.60;;;;;;5015266;28;20185;-84
2024/03/27 04:59:56;;;;;;;2.87;2.10;;;9.10;22.90;;;;;;5015422;28;20185;-82
2024/03/27 05:02:22;;;;;;;4.00;1.80;;;9.20;24.80;;;;;;5015360;28;20731;-84
2024/03/27 05:04:48;;;;;;;3.60;1.97;;;9.30;22.50;;;;;;5015004;28;20289;-82
2024/03/27 05:07:15;;;;;;;3.40;2.20;;;9.20;20.00;;;;;;5015424;28;20233;-82
2024/03/27 05:09:40;;;;;;;3.20;1.73;;;9.20;20.90;;;;;;5015893;28;20182;-82
2024/03/27 05:12:06;;;;;;;3.03;2.00;;;9.20;14.80;;;;;;5015921;28;20177;-83
2024/03/27 05:14:32;;;;;;;3.23;1.90;;;9.30;6.50;;;;;;5018208;28;20173;-83
2024/03/27 05:17:01;;;;;;;2.87;1.70;;;9.30;3.30;;;;;;5016846;28;20532;-83
2024/03/27 05:19:27;;;;;;;4.83;2.20;;;9.20;8.30;;;;;;5016309;28;20177;-82
2024/03/27 05:21:53;;;;;;;4.53;2.20;;;9.30;9.70;;;;;;5014284;28;20174;-84
2024/03/27 05:24:19;;;;;;;4.73;2.10;;;9.30;10.90;;;;;;5016210;28;20178;-83
2024/03/27 05:26:50;;;;;;;3.43;2.37;;;9.20;16.70;;;;;;5015611;28;20210;-83
2024/03/27 05:29:16;;;;;;;4.07;1.80;;;9.30;20.90;;;;;;5015409;28;20178;-81
2024/03/27 05:32:07;;;;;;;3.70;2.23;;;9.30;21.90;;;;;;5048589;28;20288;-82
2024/03/27 05:34:33;;;;;;;4.53;2.50;;;9.30;19.80;;;;;;5016402;28;20290;-85
2024/03/27 05:36:59;;;;;;;3.57;2.47;;;9.30;20.60;;;;;;5015955;28;20642;-82
2024/03/27 05:39:24;;;;;;;6.50;2.07;;;9.30;22.30;;;;;;5016210;28;20578;-84
2024/03/27 05:41:51;;;;;;;4.60;3.00;;;9.40;20.60;;;;;;5015239;28;20651;-83
2024/03/27 05:44:17;;;;;;;4.07;2.63;;;9.30;22.20;;;;;;5015650;28;20166;-84
2024/03/27 05:46:45;;;;;;;4.17;2.27;;;9.30;26.60;;;;;;5014817;28;20620;-82
2024/03/27 05:49:11;;;;;;;5.07;2.37;;;9.30;26.10;;;;;;5015548;28;20314;-83
2024/03/27 05:51:38;;;;;;;3.80;2.17;;;9.30;22.40;;;;;;5015895;28;20234;-85
2024/03/27 05:54:04;;;;;;;3.77;2.27;;;9.20;24.60;;;;;;5014845;28;20177;-82
2024/03/27 05:56:30;;;;;;;4.17;2.43;;;9.20;24.60;;;;;;5014752;28;20174;-82
2024/03/27 05:58:56;;;;;;;5.10;2.20;;;9.10;23.80;;;;;;5015225;28;20184;-81
2024/03/27 06:01:21;;;;;;;4.00;2.10;;;9.10;22.70;;;;;;5047901;28;20182;-82
2024/03/27 06:03:52;;;;;;;3.23;2.40;;;9.20;21.70;;;;;;5014234;28;20194;-84
2024/03/27 06:06:18;;;;;;;4.77;2.40;;;9.30;17.70;;;;;;5013812;28;20209;-84
2024/03/27 06:08:47;;;;;;;2.47;1.80;;;9.30;9.70;;;;;;5015822;28;20173;-81
2024/03/27 06:11:13;;;;;;;4.23;2.20;;;9.30;13.70;;;;;;5014252;28;20223;-81
2024/03/27 06:13:38;;;;;;;4.23;2.40;;;9.20;15.10;;;;;;5014766;28;20186;-82
2024/03/27 06:16:05;;;;;;;3.07;2.17;;;9.20;15.70;;;;;;5014804;28;20519;-86
2024/03/27 06:18:30;;;;;;;6.83;2.67;;;9.20;16.60;;;;;;5014308;28;20651;-84
2024/03/27 06:20:56;;;;;;;3.83;2.70;;;9.20;15.00;;;;;;5046913;28;20190;-83
2024/03/27 06:23:22;;;;;;;6.40;2.50;;;9.30;14.00;;;;;;5016562;28;20653;-83
2024/03/27 06:26:01;;;;;;;3.10;2.40;;;9.20;14.30;;;;;;5015037;28;20514;-83
2024/03/27 06:28:28;;;;;;;3.03;2.00;;;9.20;16.20;;;;;;5013702;28;20192;-83
2024/03/27 06:31:01;;;;;;;3.83;1.90;;;9.20;12.50;;;;;;5014888;28;20241;-82
2024/03/27 06:33:27;;;;;;;3.20;2.50;;;9.10;8.40;;;;;;5013884;28;20180;-82
2024/03/27 06:35:53;;;;;;;2.33;2.10;;;9.00;6.10;;;;;;5015944;28;20179;-85
2024/03/27 06:38:20;;;;;;;5.00;3.07;;;9.10;6.40;;;;;;5015444;28;20202;-84
2024/03/27 06:40:46;;;;;;;4.50;2.90;;;9.10;3.40;;;;;;5014751;28;20229;-83
2024/03/27 06:43:13;;;;;;;4.60;3.30;;;9.10;1.00;;;;;;5014797;28;20575;-82
2024/03/27 06:45:39;;;;;;;6.27;3.90;;;9.10;1.00;;;;;;5014888;28;20210;-83
2024/03/27 06:48:06;;;;;;;6.63;4.20;;;9.20;1.00;;;;;;5016140;28;20166;-83
2024/03/27 06:50:32;;;;;;;7.77;5.67;;;9.10;1.00;;;;;;5046906;28;20174;-83
2024/03/27 06:52:57;;;;;;;8.10;5.87;;;9.00;1.00;;;;;;5013972;28;20186;-82
2024/03/27 06:55:24;;;;;;;6.40;4.87;;;9.10;1.00;;;;;;5014102;28;20650;-84
2024/03/27 06:57:50;;;;;;;8.70;4.60;;;9.10;1.00;;;;;;5047536;28;20237;-84
2024/03/27 07:00:15;;;;;;;5.50;4.20;;;9.00;1.00;;;;;;5013691;28;20188;-86
2024/03/27 07:02:41;;;;;;;5.80;3.80;;;9.00;3.40;;;;;;5014354;28;20333;-86
2024/03/27 07:05:07;;;;;;;4.30;3.60;;;8.90;5.50;;;;;;5013804;28;20208;-82
2024/03/27 07:07:34;;;;;;;4.07;3.60;;;9.00;3.80;;;;;;5013951;28;20186;-85
2024/03/27 07:10:00;;;;;;;4.47;3.73;;;8.90;6.20;;;;;;5013279;28;20174;-81
2024/03/27 07:12:25;;;;;;;6.20;4.13;;;8.90;9.00;;;;;;5013223;28;20297;-84
2024/03/27 07:14:51;;;;;;;5.10;3.70;;;8.90;10.90;;;;;;5011578;28;20206;-88
2024/03/27 07:17:17;;;;;;;4.47;3.67;;;8.90;12.00;;;;;;5015984;28;20175;-83
2024/03/27 07:19:48;;;;;;;4.10;3.70;;;8.90;10.50;;;;;;5015606;28;20220;-83
2024/03/27 07:22:16;;;;;;;5.10;4.17;;;9.00;10.00;;;;;;5012500;28;20537;-83
2024/03/27 07:24:42;;;;;;;5.57;3.87;;;8.90;8.00;;;;;;5013334;28;20170;-84
2024/03/27 07:27:07;;;;;;;5.57;4.10;;;9.10;10.50;;;;;;5013110;28;20763;-85
2024/03/27 07:29:35;;;;;;;6.70;3.63;;;9.00;6.50;;;;;;4996545;28;20190;-91
2024/03/27 07:32:01;;;;;;;7.97;4.07;;;9.10;5.50;;;;;;5005614;28;20186;-87
2024/03/27 07:34:28;;;;;;;7.60;4.30;;;9.10;5.50;;;;;;5017924;28;20181;-84
2024/03/27 07:36:53;;;;;;;7.00;4.73;;;9.20;2.90;;;;;;5025922;28;20186;-84
2024/03/27 07:39:20;;;;;;;4.50;3.83;;;9.20;1.00;;;;;;5014566;28;20209;-85
2024/03/27 07:41:46;;;;;;;5.37;3.50;;;9.20;1.00;;;;;;5013217;28;20182;-86
2024/03/27 07:44:12;;;;;;;4.50;3.93;;;9.30;1.00;;;;;;5001707;28;20190;-88
2024/03/27 07:46:38;;;;;;;4.73;4.17;;;9.30;1.00;;;;;;5037780;28;20221;-89
2024/03/27 07:49:03;;;;;;;5.30;4.10;;;9.30;1.00;;;;;;5018136;28;20182;-85
2024/03/27 07:51:29;;;;;;;5.93;4.20;;;9.30;1.00;;;;;;5005976;28;20183;-83
2024/03/27 07:53:55;;;;;;;4.70;4.00;;;9.30;1.00;;;;;;5000850;28;20171;-84
2024/03/27 07:56:23;;;;;;;6.80;4.37;;;9.30;1.00;;;;;;5037402;28;20610;-86
2024/03/27 07:58:52;;;;;;;7.93;4.70;;;9.40;1.00;;;;;;5037267;28;20200;-84
2024/03/27 08:01:18;;;;;;;9.53;5.33;;;9.40;1.00;;;;;;5031543;28;20165;-86
2024/03/27 08:03:44;;;;;;;4.80;4.30;;;9.30;1.00;;;;;;5036853;28;20292;-87
2024/03/27 08:06:13;;;;;;;7.27;4.80;;;9.30;1.00;;;;;;5027832;28;20202;-83
2024/03/27 08:08:40;;;;;;;6.80;4.80;;;9.30;1.00;;;;;;5018121;28;20174;-85
2024/03/27 08:11:06;;;;;;;5.73;4.43;;;9.30;1.00;;;;;;5017008;28;20178;-86
2024/03/27 08:13:32;;;;;;;7.87;4.53;;;9.30;1.00;;;;;;5020803;28;20276;-86
2024/03/27 08:16:02;;;;;;;5.40;4.50;;;9.40;1.00;;;;;;5015547;28;20179;-85
2024/03/27 08:18:39;;;;;;;7.20;5.60;;;9.40;1.00;;;;;;5016132;28;20178;-84
2024/03/27 08:21:05;;;;;;;5.97;4.80;;;9.30;1.00;;;;;;5020850;28;20193;-86
2024/03/27 08:23:30;;;;;;;7.00;5.07;;;9.30;1.00;;;;;;5019141;28;20171;-85
2024/03/27 08:25:57;;;;;;;6.03;5.10;;;9.30;1.00;;;;;;5058225;28;20591;-86
2024/03/27 08:28:23;;;;;;;6.67;4.97;;;9.30;1.00;;;;;;5037557;28;20241;-86
2024/03/27 08:30:49;;;;;;;6.70;5.20;;;9.30;1.00;;;;;;5021049;28;20654;-85
2024/03/27 08:33:15;;;;;;;7.03;4.90;;;9.40;1.00;;;;;;5012063;28;20186;-85
2024/03/27 08:35:41;;;;;;;6.90;4.70;;;9.40;1.00;;;;;;4997760;28;20854;-84
2024/03/27 08:38:06;;;;;;;7.57;4.80;;;9.50;1.00;;;;;;4996008;28;20214;-83
2024/03/27 08:40:32;;;;;;;6.80;5.17;;;9.40;1.00;;;;;;4997558;28;20679;-84
2024/03/27 08:42:59;;;;;;;7.30;5.00;;;9.40;1.00;;;;;;5012027;28;20191;-80
2024/03/27 08:45:25;;;;;;;7.37;5.03;;;9.40;1.00;;;;;;5009627;28;20628;-82
2024/03/27 08:47:50;;;;;;;6.70;4.43;;;9.40;1.00;;;;;;5022179;28;20635;-82
2024/03/27 08:50:17;;;;;;;8.53;5.60;;;9.50;1.00;;;;;;5017472;28;20170;-81
2024/03/27 08:52:45;;;;;;;5.53;4.77;;;9.60;1.00;;;;;;5029285;28;20638;-82
2024/03/27 08:55:11;;;;;;;5.93;4.80;;;9.70;1.00;;;;;;5035177;28;20689;-83
2024/03/27 08:57:37;;;;;;;8.03;5.00;;;9.80;1.00;;;;;;5036685;28;20657;-80
2024/03/27 09:00:10;;;;;;;8.43;5.73;;;9.80;1.00;;;;;;5059671;28;20189;-83
2024/03/27 09:02:36;;;;;;;7.40;4.67;;;9.80;1.00;;;;;;5035025;28;20189;-83
2024/03/27 09:05:01;;;;;;;5.70;4.53;;;10.00;1.00;;;;;;5036337;28;20343;-84
2024/03/27 09:07:27;;;;;;;6.67;5.07;;;10.00;1.00;;;;;;5017394;28;20614;-82
2024/03/27 09:09:53;;;;;;;8.60;5.80;;;10.20;1.00;;;;;;5013368;28;20174;-81
2024/03/27 09:12:18;;;;;;;7.67;5.37;;;10.20;1.00;;;;;;4999323;28;20202;-83
2024/03/27 09:14:44;;;;;;;8.83;5.43;;;10.40;1.00;;;;;;5035508;28;20240;-83
2024/03/27 09:17:09;;;;;;;10.60;5.40;;;10.40;1.00;;;;;;5016373;28;20617;-81
2024/03/27 09:19:38;;;;;;;6.60;4.40;;;10.50;1.00;;;;;;5014651;28;20182;-80
2024/03/27 09:22:04;;;;;;;7.00;4.93;;;10.40;1.00;;;;;;5015444;28;20546;-79
2024/03/27 09:24:30;;;;;;;6.73;5.33;;;10.50;1.00;;;;;;5003369;28;20190;-80
2024/03/27 09:26:56;;;;;;;6.00;4.87;;;10.80;1.00;;;;;;5002113;28;21483;-81
2024/03/27 09:29:22;;;;;;;6.23;4.23;;;11.10;1.00;;;;;;5035159;28;20631;-83
2024/03/27 09:31:47;;;;;;;7.20;5.10;;;11.30;1.00;;;;;;5019436;28;20186;-74
2024/03/27 09:34:13;;;;;;;6.13;4.83;;;11.20;1.00;;;;;;5018890;28;20181;-75
2024/03/27 09:36:39;;;;;;;6.57;4.90;;;11.50;1.00;;;;;;5028298;28;20568;-74
2024/03/27 09:39:04;;;;;;;4.67;4.17;;;11.50;1.00;;;;;;5008147;28;20533;-75
2024/03/27 09:41:30;;;;;;;6.13;4.40;;;11.50;1.00;;;;;;5002471;28;20266;-75
2024/03/27 09:43:58;;;;;;;5.53;4.13;;;11.30;1.00;;;;;;5011094;28;20192;-75
2024/03/27 09:46:24;;;;;;;6.83;4.37;;;11.50;1.00;;;;;;5045719;28;20299;-75
2024/03/27 09:48:52;;;;;;;8.10;4.83;;;11.60;1.00;;;;;;5008344;28;20206;-75
2024/03/27 09:51:20;;;;;;;5.10;4.20;;;11.60;1.00;;;;;;5013727;28;20523;-79
2024/03/27 09:53:46;;;;;;;4.37;3.63;;;11.70;1.00;;;;;;5020072;28;20174;-73
2024/03/27 09:56:11;;;;;;;5.10;4.13;;;11.80;1.00;;;;;;5003706;28;20217;-80
2024/03/27 09:58:38;;;;;;;5.37;4.00;;;11.90;1.00;;;;;;5014141;28;20183;-82
2024/03/27 10:01:04;;;;;;;8.57;3.77;;;11.80;1.00;;;;;;5015647;28;20182;-81
2024/03/27 10:03:30;;;;;;;6.57;4.00;;;11.50;1.00;;;;;;5015536;28;20217;-83
2024/03/27 10:05:58;;;;;;;5.50;4.00;;;11.20;1.00;;;;;;5015837;28;20226;-92
2024/03/27 10:08:27;;;;;;;5.73;3.83;;;11.20;1.00;;;;;;5014047;28;20665;-85
2024/03/27 10:10:59;;;;;;;5.07;3.53;;;10.90;1.00;;;;;;5016372;28;20209;-82
2024/03/27 10:13:27;;;;;;;5.03;3.63;;;10.90;1.00;;;;;;5014365;28;20197;-83
2024/03/27 10:15:53;;;;;;;5.17;3.53;;;10.80;1.00;;;;;;5048488;28;20533;-82
2024/03/27 10:18:19;;;;;;;6.50;3.87;;;10.80;1.00;;;;;;5014890;28;20179;-82
2024/03/27 10:20:46;;;;;;;7.77;4.40;;;10.80;1.00;;;;;;5047510;28;20182;-84
2024/03/27 10:23:12;;;;;;;8.37;4.60;;;10.80;1.00;;;;;;5014715;28;20212;-83
2024/03/27 10:25:39;;;;;;;4.30;3.77;;;10.80;1.00;;;;;;5015167;28;20206;-84
2024/03/27 10:28:08;;;;;;;5.33;3.93;;;11.00;1.00;;;;;;5014268;28;20187;-84
2024/03/27 10:30:34;;;;;;;5.60;4.00;;;11.00;1.00;;;;;;5015092;28;20253;-84
2024/03/27 10:33:01;;;;;;;6.60;3.97;;;10.90;1.00;;;;;;5015645;28;20244;-85
2024/03/27 10:35:31;;;;;;;5.47;3.57;;;11.00;1.00;;;;;;5014527;28;21008;-82
2024/03/27 10:37:58;;;;;;;4.40;3.40;;;11.00;1.00;;;;;;5015798;28;20585;-84
2024/03/27 10:40:24;;;;;;;4.20;3.63;;;11.00;1.00;;;;;;5014605;28;20175;-83
2024/03/27 10:43:17;;;;;;;4.53;3.90;;;11.10;1.00;;;;;;5047195;28;20197;-82
2024/03/27 10:45:43;;;;;;;4.23;3.20;;;11.10;1.00;;;;;;5014636;28;20674;-86
2024/03/27 10:48:09;;;;;;;5.93;3.40;;;11.10;1.00;;;;;;5014645;28;20192;-83
2024/03/27 10:50:37;;;;;;;5.67;3.67;;;11.20;1.00;;;;;;5014802;28;20210;-82
2024/03/27 10:53:05;;;;;;;4.30;2.97;;;11.30;1.00;;;;;;5013691;28;20190;-84
2024/03/27 10:55:36;;;;;;;6.30;3.47;;;11.40;1.00;;;;;;5013674;28;20592;-83
2024/03/27 10:58:03;;;;;;;5.43;3.17;;;11.40;1.00;;;;;;5013178;28;20180;-83
2024/03/27 11:00:30;;;;;;;4.63;3.50;;;11.70;1.00;;;;;;5013479;28;20178;-82
2024/03/27 11:02:57;;;;;;;5.33;3.20;;;11.90;1.00;;;;;;5013198;28;20190;-84
2024/03/27 11:05:27;;;;;;;5.40;3.57;;;11.90;1.00;;;;;;5045682;28;20698;-83
2024/03/27 11:07:54;;;;;;;3.73;3.20;;;12.00;1.00;;;;;;5015406;28;20195;-86
2024/03/27 11:10:24;;;;;;;3.70;3.00;;;12.10;1.00;;;;;;5014963;28;20704;-82
2024/03/27 11:12:50;;;;;;;4.63;2.63;;;12.00;1.00;;;;;;5046945;28;20198;-85
2024/03/27 11:15:16;;;;;;;4.43;3.20;;;11.90;1.00;;;;;;5046808;28;20183;-83
2024/03/27 11:17:57;;;;;;;4.80;3.13;;;12.00;1.00;;;;;;5012750;28;20178;-84
2024/03/27 11:20:25;;;;;;;4.37;2.90;;;12.10;1.00;;;;;;5014620;28;20234;-82
2024/03/27 11:22:55;;;;;;;6.90;3.37;;;12.30;1.00;;;;;;5014343;28;20193;-83
2024/03/27 11:25:26;;;;;;;5.70;3.50;;;12.50;1.00;;;;;;5013897;28;20647;-83
2024/03/27 11:27:52;;;;;;;8.07;3.67;;;12.70;1.00;;;;;;5012510;28;20184;-83
2024/03/27 11:30:19;;;;;;;4.10;3.40;;;12.80;1.00;;;;;;5045031;28;20275;-83
2024/03/27 11:32:47;;;;;;;4.77;3.10;;;12.90;1.00;;;;;;5012966;28;20246;-85
2024/03/27 11:35:18;;;;;;;7.13;5.00;;;13.10;1.00;;;;;;5011681;28;20182;-83
2024/03/27 11:37:44;;;;;;;4.60;3.20;;;13.10;1.00;;;;;;5012277;28;20709;-84
2024/03/27 11:40:10;;;;;;;4.43;2.90;;;13.00;1.00;;;;;;5012277;28;20204;-82
2024/03/27 11:42:36;;;;;;;4.17;2.47;;;13.20;1.00;;;;;;5013074;28;20397;-83
2024/03/27 11:45:03;;;;;;;5.30;2.50;;;13.30;99.90;;;;;;5013043;28;20205;-84
2024/03/27 11:47:29;;;;;;;3.93;2.70;;;13.30;99.90;;;;;;5013440;28;20215;-84
2024/03/27 11:49:55;;;;;;;6.07;2.80;;;13.30;99.90;;;;;;5014483;28;20246;-85
2024/03/27 11:52:21;;;;;;;3.93;2.50;;;13.30;99.90;;;;;;5012828;28;20550;-85
2024/03/27 11:54:46;;;;;;;4.20;2.70;;;13.30;99.90;;;;;;5014776;28;20170;-82
2024/03/27 11:57:12;;;;;;;5.37;2.80;;;13.40;99.90;;;;;;5013542;28;20599;-83
2024/03/27 11:59:39;;;;;;;3.87;2.53;;;13.30;99.90;;;;;;5012508;28;20542;-83
2024/03/27 12:02:04;;;;;;;10.53;6.27;;;13.20;99.90;;;;;;5012249;28;20249;-82
2024/03/27 12:04:30;;;;;;;8.43;3.80;;;13.10;1.00;;;;;;5012695;28;20245;-83
2024/03/27 12:06:59;;;;;;;4.67;2.40;;;13.10;1.00;;;;;;5012152;28;20209;-83
2024/03/27 12:09:25;;;;;;;4.63;2.60;;;13.00;1.00;;;;;;5013210;28;20575;-83
2024/03/27 12:11:52;;;;;;;4.80;2.70;;;13.00;1.00;;;;;;5012692;28;20174;-84
2024/03/27 12:14:18;;;;;;;6.00;2.57;;;13.00;1.00;;;;;;5012799;28;20559;-81
2024/03/27 12:16:45;;;;;;;5.03;2.70;;;12.90;1.00;;;;;;5014257;28;20180;-84
2024/03/27 12:19:11;;;;;;;4.30;2.70;;;12.90;1.00;;;;;;5013229;28;20172;-81
2024/03/27 12:21:40;;;;;;;4.60;2.97;;;12.90;1.00;;;;;;5013107;28;20181;-83
2024/03/27 12:24:06;;;;;;;3.47;2.57;;;12.90;1.00;;;;;;5013618;28;20169;-85
2024/03/27 12:26:32;;;;;;;4.10;2.40;;;12.90;1.00;;;;;;5013172;28;20295;-84
2024/03/27 12:28:59;;;;;;;4.17;2.37;;;12.90;1.00;;;;;;5012604;28;20209;-85
2024/03/27 12:31:28;;;;;;;6.17;3.43;;;12.80;1.00;;;;;;5010218;28;20183;-86
2024/03/27 12:33:55;;;;;;;6.83;3.53;;;12.80;1.00;;;;;;5040326;28;20179;-85
2024/03/27 12:36:21;;;;;;;4.63;2.77;;;12.80;1.00;;;;;;5044591;28;20217;-84
2024/03/27 12:38:47;;;;;;;6.57;2.80;;;12.60;1.00;;;;;;5013851;28;20218;-83
2024/03/27 12:41:13;;;;;;;4.50;2.60;;;12.60;1.00;;;;;;5045305;28;20602;-84
2024/03/27 12:43:39;;;;;;;7.70;3.03;;;12.80;1.00;;;;;;5012666;28;20643;-85
2024/03/27 12:46:06;;;;;;;8.40;2.70;;;12.80;1.00;;;;;;5012642;28;20693;-90
2024/03/27 12:48:32;;;;;;;5.40;2.87;;;12.70;1.00;;;;;;5047872;28;20183;-85
2024/03/27 12:50:59;;;;;;;7.13;2.20;;;12.80;1.00;;;;;;5046556;28;20273;-84
2024/03/27 12:53:24;;;;;;;4.77;2.33;;;12.80;1.00;;;;;;5046043;28;20189;-82
2024/03/27 12:55:53;;;;;;;8.30;3.53;;;13.00;99.90;;;;;;5014623;28;20178;-91